Fairview, Illinois
Current Conditions -  °F | °C
As of 4:54 AM on Monday 20 Oct 2014 (Local Time) from KPIA Reporting Station
Clear Clear  
Wind Chill: 48°   Ceiling: Unl
Heat Index: 48°   Visibility: 10mi
Dew Point: 43°   Wind: 3mph
Humidity: 83%   Direction: 220°SW
Pressure: 29.88"   Gusts: NA
Location:  40.63°N, 90.16°W
Report Text: KPIA 200954Z 22003KT 10SM CLR 09/06 A2988 RMK AO2 SLP118 T00890061
Loading
Personal Weather Stations






























Interactive Weather Map
Tropical Storm Tracking
New forecast layout! Learn more

10-Day Weather Forecast

Advertisements
Track Severe Weather on mobile